sensor_id;sensor_type;location;lat;lon;timestamp;P1;durP1;ratioP1;P2;durP2;ratioP2
31660;SDS011;18267;52.234;7.444;2024-02-21T00:00:45;29.20;;;9.48;;
31660;SDS011;18267;52.234;7.444;2024-02-21T00:03:10;26.85;;;9.55;;
31660;SDS011;18267;52.234;7.444;2024-02-21T00:05:36;29.55;;;9.60;;
31660;SDS011;18267;52.234;7.444;2024-02-21T00:08:02;28.20;;;10.45;;
31660;SDS011;18267;52.234;7.444;2024-02-21T00:10:28;25.33;;;10.27;;
31660;SDS011;18267;52.234;7.444;2024-02-21T00:12:53;22.23;;;9.57;;
31660;SDS011;18267;52.234;7.444;2024-02-21T00:15:19;25.67;;;10.05;;
31660;SDS011;18267;52.234;7.444;2024-02-21T00:17:45;26.13;;;9.38;;
31660;SDS011;18267;52.234;7.444;2024-02-21T00:20:10;18.02;;;8.85;;
31660;SDS011;18267;52.234;7.444;2024-02-21T00:22:37;19.48;;;8.77;;
31660;SDS011;18267;52.234;7.444;2024-02-21T00:25:03;17.98;;;8.82;;
31660;SDS011;18267;52.234;7.444;2024-02-21T00:27:28;26.30;;;9.48;;
31660;SDS011;18267;52.234;7.444;2024-02-21T00:29:54;20.02;;;8.15;;
31660;SDS011;18267;52.234;7.444;2024-02-21T00:32:19;27.50;;;9.88;;
31660;SDS011;18267;52.234;7.444;2024-02-21T00:34:45;22.80;;;9.25;;
31660;SDS011;18267;52.234;7.444;2024-02-21T00:37:11;23.02;;;9.05;;
31660;SDS011;18267;52.234;7.444;2024-02-21T00:39:36;15.80;;;7.78;;
31660;SDS011;18267;52.234;7.444;2024-02-21T00:42:02;20.30;;;8.32;;
31660;SDS011;18267;52.234;7.444;2024-02-21T00:44:28;21.42;;;8.98;;
31660;SDS011;18267;52.234;7.444;2024-02-21T00:46:53;25.55;;;9.23;;
31660;SDS011;18267;52.234;7.444;2024-02-21T00:49:19;21.42;;;8.07;;
31660;SDS011;18267;52.234;7.444;2024-02-21T00:51:44;21.92;;;8.68;;
31660;SDS011;18267;52.234;7.444;2024-02-21T00:54:10;26.98;;;9.32;;
31660;SDS011;18267;52.234;7.444;2024-02-21T00:56:36;23.45;;;9.18;;
31660;SDS011;18267;52.234;7.444;2024-02-21T00:59:01;21.08;;;8.77;;
31660;SDS011;18267;52.234;7.444;2024-02-21T01:01:27;22.00;;;8.23;;
31660;SDS011;18267;52.234;7.444;2024-02-21T01:03:52;28.15;;;9.23;;
31660;SDS011;18267;52.234;7.444;2024-02-21T01:06:19;19.92;;;8.70;;
31660;SDS011;18267;52.234;7.444;2024-02-21T01:08:45;24.98;;;9.02;;
31660;SDS011;18267;52.234;7.444;2024-02-21T01:11:14;27.88;;;9.50;;
31660;SDS011;18267;52.234;7.444;2024-02-21T01:13:40;22.05;;;8.63;;
31660;SDS011;18267;52.234;7.444;2024-02-21T01:16:06;19.30;;;8.38;;
31660;SDS011;18267;52.234;7.444;2024-02-21T01:18:34;15.95;;;7.82;;
31660;SDS011;18267;52.234;7.444;2024-02-21T01:21:02;27.83;;;9.10;;
31660;SDS011;18267;52.234;7.444;2024-02-21T01:23:31;26.40;;;9.40;;
31660;SDS011;18267;52.234;7.444;2024-02-21T01:25:57;23.00;;;8.55;;
31660;SDS011;18267;52.234;7.444;2024-02-21T01:28:23;26.35;;;8.00;;
31660;SDS011;18267;52.234;7.444;2024-02-21T01:30:48;26.70;;;9.50;;
31660;SDS011;18267;52.234;7.444;2024-02-21T01:33:14;20.95;;;8.10;;
31660;SDS011;18267;52.234;7.444;2024-02-21T01:35:39;26.30;;;8.90;;
31660;SDS011;18267;52.234;7.444;2024-02-21T01:38:05;25.23;;;8.50;;
31660;SDS011;18267;52.234;7.444;2024-02-21T01:40:31;14.48;;;7.85;;
31660;SDS011;18267;52.234;7.444;2024-02-21T01:42:56;23.38;;;8.85;;
31660;SDS011;18267;52.234;7.444;2024-02-21T01:45:22;24.33;;;8.13;;
31660;SDS011;18267;52.234;7.444;2024-02-21T01:47:47;24.33;;;8.25;;
31660;SDS011;18267;52.234;7.444;2024-02-21T01:50:14;20.15;;;8.50;;
31660;SDS011;18267;52.234;7.444;2024-02-21T01:52:42;20.02;;;8.13;;
31660;SDS011;18267;52.234;7.444;2024-02-21T01:55:09;22.27;;;8.10;;
31660;SDS011;18267;52.234;7.444;2024-02-21T01:57:36;18.10;;;8.35;;
31660;SDS011;18267;52.234;7.444;2024-02-21T02:00:02;23.35;;;8.15;;
31660;SDS011;18267;52.234;7.444;2024-02-21T02:02:28;21.63;;;7.75;;
31660;SDS011;18267;52.234;7.444;2024-02-21T02:04:54;23.80;;;7.95;;
31660;SDS011;18267;52.234;7.444;2024-02-21T02:07:19;26.88;;;9.10;;
31660;SDS011;18267;52.234;7.444;2024-02-21T02:09:45;23.77;;;9.20;;
31660;SDS011;18267;52.234;7.444;2024-02-21T02:12:10;30.50;;;8.38;;
31660;SDS011;18267;52.234;7.444;2024-02-21T02:14:36;20.25;;;8.65;;
31660;SDS011;18267;52.234;7.444;2024-02-21T02:17:02;17.75;;;8.23;;
31660;SDS011;18267;52.234;7.444;2024-02-21T02:19:27;23.15;;;7.72;;
31660;SDS011;18267;52.234;7.444;2024-02-21T02:21:58;20.60;;;8.38;;
31660;SDS011;18267;52.234;7.444;2024-02-21T02:24:34;20.98;;;7.75;;
31660;SDS011;18267;52.234;7.444;2024-02-21T02:27:00;21.13;;;8.43;;
31660;SDS011;18267;52.234;7.444;2024-02-21T02:29:25;23.73;;;9.25;;
31660;SDS011;18267;52.234;7.444;2024-02-21T02:31:51;19.38;;;8.45;;
31660;SDS011;18267;52.234;7.444;2024-02-21T02:34:16;17.52;;;7.65;;
31660;SDS011;18267;52.234;7.444;2024-02-21T02:36:42;15.60;;;8.00;;
31660;SDS011;18267;52.234;7.444;2024-02-21T02:39:07;17.80;;;7.63;;
31660;SDS011;18267;52.234;7.444;2024-02-21T02:41:34;19.25;;;7.97;;
31660;SDS011;18267;52.234;7.444;2024-02-21T02:44:03;17.42;;;7.40;;
31660;SDS011;18267;52.234;7.444;2024-02-21T02:46:29;26.83;;;7.93;;
31660;SDS011;18267;52.234;7.444;2024-02-21T02:48:54;15.95;;;7.75;;
31660;SDS011;18267;52.234;7.444;2024-02-21T02:51:20;17.42;;;8.35;;
31660;SDS011;18267;52.234;7.444;2024-02-21T02:53:45;18.88;;;8.30;;
31660;SDS011;18267;52.234;7.444;2024-02-21T02:56:14;26.77;;;9.02;;
31660;SDS011;18267;52.234;7.444;2024-02-21T02:58:40;23.88;;;7.97;;
31660;SDS011;18267;52.234;7.444;2024-02-21T03:01:07;24.33;;;8.65;;
31660;SDS011;18267;52.234;7.444;2024-02-21T03:03:33;27.08;;;8.70;;
31660;SDS011;18267;52.234;7.444;2024-02-21T03:05:58;24.60;;;8.27;;
31660;SDS011;18267;52.234;7.444;2024-02-21T03:08:24;17.65;;;8.35;;
31660;SDS011;18267;52.234;7.444;2024-02-21T03:10:49;22.70;;;9.13;;
31660;SDS011;18267;52.234;7.444;2024-02-21T03:13:15;21.70;;;8.88;;
31660;SDS011;18267;52.234;7.444;2024-02-21T03:15:40;15.82;;;7.55;;
31660;SDS011;18267;52.234;7.444;2024-02-21T03:18:06;23.17;;;8.88;;
31660;SDS011;18267;52.234;7.444;2024-02-21T03:20:31;24.90;;;8.75;;
31660;SDS011;18267;52.234;7.444;2024-02-21T03:22:57;22.10;;;7.10;;
31660;SDS011;18267;52.234;7.444;2024-02-21T03:25:23;16.83;;;8.93;;
31660;SDS011;18267;52.234;7.444;2024-02-21T03:27:48;24.75;;;8.48;;
31660;SDS011;18267;52.234;7.444;2024-02-21T03:30:14;21.27;;;7.90;;
31660;SDS011;18267;52.234;7.444;2024-02-21T03:32:39;28.98;;;8.32;;
31660;SDS011;18267;52.234;7.444;2024-02-21T03:35:05;27.80;;;8.48;;
31660;SDS011;18267;52.234;7.444;2024-02-21T03:37:31;22.92;;;9.70;;
31660;SDS011;18267;52.234;7.444;2024-02-21T03:39:57;25.52;;;9.15;;
31660;SDS011;18267;52.234;7.444;2024-02-21T03:42:23;26.13;;;9.30;;
31660;SDS011;18267;52.234;7.444;2024-02-21T03:44:48;24.63;;;9.05;;
31660;SDS011;18267;52.234;7.444;2024-02-21T03:47:14;22.85;;;8.80;;
31660;SDS011;18267;52.234;7.444;2024-02-21T03:49:39;28.23;;;9.35;;
31660;SDS011;18267;52.234;7.444;2024-02-21T03:52:05;26.10;;;8.63;;
31660;SDS011;18267;52.234;7.444;2024-02-21T03:54:30;32.05;;;8.40;;
31660;SDS011;18267;52.234;7.444;2024-02-21T03:56:56;22.88;;;8.38;;
31660;SDS011;18267;52.234;7.444;2024-02-21T03:59:22;25.88;;;10.05;;
31660;SDS011;18267;52.234;7.444;2024-02-21T04:01:51;18.70;;;7.95;;
31660;SDS011;18267;52.234;7.444;2024-02-21T04:04:17;25.35;;;9.13;;
31660;SDS011;18267;52.234;7.444;2024-02-21T04:06:46;19.17;;;8.52;;
31660;SDS011;18267;52.234;7.444;2024-02-21T04:09:15;28.63;;;9.40;;
31660;SDS011;18267;52.234;7.444;2024-02-21T04:11:40;24.95;;;8.88;;
31660;SDS011;18267;52.234;7.444;2024-02-21T04:14:06;22.95;;;9.23;;
31660;SDS011;18267;52.234;7.444;2024-02-21T04:16:32;28.02;;;8.75;;
31660;SDS011;18267;52.234;7.444;2024-02-21T04:18:57;21.45;;;9.27;;
31660;SDS011;18267;52.234;7.444;2024-02-21T04:21:23;20.70;;;9.15;;
31660;SDS011;18267;52.234;7.444;2024-02-21T04:23:48;31.15;;;8.90;;
31660;SDS011;18267;52.234;7.444;2024-02-21T04:26:14;32.30;;;10.52;;
31660;SDS011;18267;52.234;7.444;2024-02-21T04:28:39;21.58;;;8.48;;
31660;SDS011;18267;52.234;7.444;2024-02-21T04:31:05;27.65;;;9.85;;
31660;SDS011;18267;52.234;7.444;2024-02-21T04:33:30;24.92;;;9.55;;
31660;SDS011;18267;52.234;7.444;2024-02-21T04:35:57;25.52;;;9.88;;
31660;SDS011;18267;52.234;7.444;2024-02-21T04:38:23;26.60;;;8.82;;
31660;SDS011;18267;52.234;7.444;2024-02-21T04:40:49;24.08;;;10.05;;
31660;SDS011;18267;52.234;7.444;2024-02-21T04:43:14;29.50;;;9.45;;
31660;SDS011;18267;52.234;7.444;2024-02-21T04:45:40;26.27;;;9.77;;
31660;SDS011;18267;52.234;7.444;2024-02-21T04:48:05;24.95;;;9.48;;
31660;SDS011;18267;52.234;7.444;2024-02-21T04:50:31;20.48;;;9.75;;
31660;SDS011;18267;52.234;7.444;2024-02-21T04:52:57;27.10;;;9.07;;
31660;SDS011;18267;52.234;7.444;2024-02-21T04:55:22;22.23;;;9.45;;
31660;SDS011;18267;52.234;7.444;2024-02-21T04:57:48;25.70;;;9.00;;
31660;SDS011;18267;52.234;7.444;2024-02-21T05:00:13;28.27;;;8.82;;
31660;SDS011;18267;52.234;7.444;2024-02-21T05:02:39;28.02;;;9.25;;
31660;SDS011;18267;52.234;7.444;2024-02-21T05:05:05;29.20;;;10.40;;
31660;SDS011;18267;52.234;7.444;2024-02-21T05:07:30;24.00;;;8.82;;
31660;SDS011;18267;52.234;7.444;2024-02-21T05:09:56;29.40;;;9.02;;
31660;SDS011;18267;52.234;7.444;2024-02-21T05:12:21;20.85;;;7.97;;
31660;SDS011;18267;52.234;7.444;2024-02-21T05:14:47;23.45;;;8.10;;
31660;SDS011;18267;52.234;7.444;2024-02-21T05:17:12;17.73;;;7.55;;
31660;SDS011;18267;52.234;7.444;2024-02-21T05:19:40;27.52;;;8.63;;
31660;SDS011;18267;52.234;7.444;2024-02-21T05:22:05;24.40;;;7.90;;
31660;SDS011;18267;52.234;7.444;2024-02-21T05:24:31;21.38;;;8.07;;
31660;SDS011;18267;52.234;7.444;2024-02-21T05:26:56;14.40;;;7.78;;
31660;SDS011;18267;52.234;7.444;2024-02-21T05:29:22;25.80;;;8.50;;
31660;SDS011;18267;52.234;7.444;2024-02-21T05:34:21;16.00;;;6.32;;
31660;SDS011;18267;52.234;7.444;2024-02-21T05:36:47;18.13;;;7.43;;
31660;SDS011;18267;52.234;7.444;2024-02-21T05:39:14;21.98;;;8.18;;
31660;SDS011;18267;52.234;7.444;2024-02-21T05:41:41;25.08;;;7.32;;
31660;SDS011;18267;52.234;7.444;2024-02-21T05:44:06;21.70;;;7.55;;
31660;SDS011;18267;52.234;7.444;2024-02-21T05:46:32;22.00;;;8.32;;
31660;SDS011;18267;52.234;7.444;2024-02-21T05:48:57;13.98;;;6.00;;
31660;SDS011;18267;52.234;7.444;2024-02-21T05:51:23;21.20;;;7.70;;
31660;SDS011;18267;52.234;7.444;2024-02-21T05:53:49;20.33;;;7.38;;
31660;SDS011;18267;52.234;7.444;2024-02-21T05:56:14;20.90;;;7.00;;
31660;SDS011;18267;52.234;7.444;2024-02-21T05:58:40;13.68;;;6.97;;
31660;SDS011;18267;52.234;7.444;2024-02-21T06:01:06;17.17;;;7.03;;
31660;SDS011;18267;52.234;7.444;2024-02-21T06:03:32;22.98;;;6.35;;
31660;SDS011;18267;52.234;7.444;2024-02-21T06:05:59;27.33;;;7.35;;
31660;SDS011;18267;52.234;7.444;2024-02-21T06:08:25;16.40;;;7.28;;
31660;SDS011;18267;52.234;7.444;2024-02-21T06:10:50;17.90;;;7.20;;
31660;SDS011;18267;52.234;7.444;2024-02-21T06:13:19;28.02;;;6.75;;
31660;SDS011;18267;52.234;7.444;2024-02-21T06:15:51;15.70;;;6.88;;
31660;SDS011;18267;52.234;7.444;2024-02-21T06:18:17;18.15;;;6.65;;
31660;SDS011;18267;52.234;7.444;2024-02-21T06:20:42;17.42;;;6.30;;
31660;SDS011;18267;52.234;7.444;2024-02-21T06:23:08;17.95;;;6.75;;
31660;SDS011;18267;52.234;7.444;2024-02-21T06:25:33;20.58;;;6.53;;
31660;SDS011;18267;52.234;7.444;2024-02-21T06:27:59;16.35;;;8.10;;
31660;SDS011;18267;52.234;7.444;2024-02-21T06:30:24;23.25;;;7.95;;
31660;SDS011;18267;52.234;7.444;2024-02-21T06:32:50;17.85;;;6.25;;
31660;SDS011;18267;52.234;7.444;2024-02-21T06:35:16;20.13;;;7.40;;
31660;SDS011;18267;52.234;7.444;2024-02-21T06:37:42;21.75;;;7.35;;
31660;SDS011;18267;52.234;7.444;2024-02-21T06:40:07;18.92;;;6.75;;
31660;SDS011;18267;52.234;7.444;2024-02-21T06:42:33;17.77;;;5.70;;
31660;SDS011;18267;52.234;7.444;2024-02-21T06:44:59;22.75;;;6.82;;
31660;SDS011;18267;52.234;7.444;2024-02-21T06:47:24;19.25;;;6.30;;
31660;SDS011;18267;52.234;7.444;2024-02-21T06:49:50;11.30;;;6.00;;
31660;SDS011;18267;52.234;7.444;2024-02-21T06:52:19;18.33;;;7.30;;
31660;SDS011;18267;52.234;7.444;2024-02-21T06:54:48;15.05;;;6.32;;
31660;SDS011;18267;52.234;7.444;2024-02-21T06:57:14;14.98;;;6.15;;
31660;SDS011;18267;52.234;7.444;2024-02-21T06:59:42;16.05;;;6.35;;
31660;SDS011;18267;52.234;7.444;2024-02-21T07:02:08;12.10;;;5.25;;
31660;SDS011;18267;52.234;7.444;2024-02-21T07:04:34;19.02;;;6.75;;
31660;SDS011;18267;52.234;7.444;2024-02-21T07:07:00;20.33;;;6.65;;
31660;SDS011;18267;52.234;7.444;2024-02-21T07:09:26;15.77;;;6.25;;
31660;SDS011;18267;52.234;7.444;2024-02-21T07:11:53;17.70;;;7.03;;
31660;SDS011;18267;52.234;7.444;2024-02-21T07:14:19;16.00;;;6.03;;
31660;SDS011;18267;52.234;7.444;2024-02-21T07:16:44;17.17;;;6.55;;
31660;SDS011;18267;52.234;7.444;2024-02-21T07:19:10;17.83;;;6.05;;
31660;SDS011;18267;52.234;7.444;2024-02-21T07:21:35;18.33;;;6.82;;
31660;SDS011;18267;52.234;7.444;2024-02-21T07:24:03;9.90;;;5.78;;
31660;SDS011;18267;52.234;7.444;2024-02-21T07:26:29;19.10;;;5.63;;
31660;SDS011;18267;52.234;7.444;2024-02-21T07:28:56;15.27;;;6.32;;
31660;SDS011;18267;52.234;7.444;2024-02-21T07:31:21;13.70;;;6.03;;
31660;SDS011;18267;52.234;7.444;2024-02-21T07:33:47;14.35;;;6.05;;
31660;SDS011;18267;52.234;7.444;2024-02-21T07:36:14;12.43;;;6.45;;
31660;SDS011;18267;52.234;7.444;2024-02-21T07:38:40;18.05;;;5.65;;
31660;SDS011;18267;52.234;7.444;2024-02-21T07:41:06;9.77;;;5.43;;
31660;SDS011;18267;52.234;7.444;2024-02-21T07:43:32;18.65;;;6.05;;
31660;SDS011;18267;52.234;7.444;2024-02-21T07:45:57;17.95;;;5.15;;
31660;SDS011;18267;52.234;7.444;2024-02-21T07:48:23;16.17;;;5.78;;
31660;SDS011;18267;52.234;7.444;2024-02-21T07:50:50;18.25;;;5.53;;
31660;SDS011;18267;52.234;7.444;2024-02-21T07:53:15;13.68;;;5.22;;
31660;SDS011;18267;52.234;7.444;2024-02-21T07:55:41;14.05;;;5.22;;
31660;SDS011;18267;52.234;7.444;2024-02-21T07:58:07;11.32;;;5.32;;
31660;SDS011;18267;52.234;7.444;2024-02-21T08:00:32;18.45;;;5.40;;
31660;SDS011;18267;52.234;7.444;2024-02-21T08:02:58;13.98;;;5.53;;
31660;SDS011;18267;52.234;7.444;2024-02-21T08:05:23;12.45;;;4.78;;
31660;SDS011;18267;52.234;7.444;2024-02-21T08:07:49;11.95;;;5.40;;
31660;SDS011;18267;52.234;7.444;2024-02-21T08:10:15;11.80;;;5.35;;
31660;SDS011;18267;52.234;7.444;2024-02-21T08:12:40;13.27;;;5.63;;
31660;SDS011;18267;52.234;7.444;2024-02-21T08:15:06;12.65;;;5.05;;
31660;SDS011;18267;52.234;7.444;2024-02-21T08:17:36;18.08;;;4.68;;
31660;SDS011;18267;52.234;7.444;2024-02-21T08:20:02;10.23;;;4.90;;
31660;SDS011;18267;52.234;7.444;2024-02-21T08:22:29;32.83;;;5.97;;
31660;SDS011;18267;52.234;7.444;2024-02-21T08:24:55;16.60;;;5.13;;
31660;SDS011;18267;52.234;7.444;2024-02-21T08:27:20;11.55;;;4.50;;
31660;SDS011;18267;52.234;7.444;2024-02-21T08:29:46;12.07;;;4.85;;
31660;SDS011;18267;52.234;7.444;2024-02-21T08:32:12;10.82;;;4.63;;
31660;SDS011;18267;52.234;7.444;2024-02-21T08:34:37;8.80;;;4.05;;
31660;SDS011;18267;52.234;7.444;2024-02-21T08:37:03;16.25;;;4.45;;
31660;SDS011;18267;52.234;7.444;2024-02-21T08:39:28;14.73;;;4.43;;
31660;SDS011;18267;52.234;7.444;2024-02-21T08:41:55;12.38;;;4.75;;
31660;SDS011;18267;52.234;7.444;2024-02-21T08:44:22;13.52;;;4.93;;
31660;SDS011;18267;52.234;7.444;2024-02-21T08:46:50;16.02;;;5.07;;
31660;SDS011;18267;52.234;7.444;2024-02-21T08:49:16;10.38;;;4.68;;
31660;SDS011;18267;52.234;7.444;2024-02-21T08:51:41;15.23;;;5.03;;
31660;SDS011;18267;52.234;7.444;2024-02-21T08:54:08;11.60;;;3.78;;
31660;SDS011;18267;52.234;7.444;2024-02-21T08:56:33;12.07;;;4.40;;
31660;SDS011;18267;52.234;7.444;2024-02-21T08:59:00;14.13;;;4.10;;
31660;SDS011;18267;52.234;7.444;2024-02-21T09:01:26;8.15;;;4.65;;
31660;SDS011;18267;52.234;7.444;2024-02-21T09:03:52;11.05;;;4.00;;
31660;SDS011;18267;52.234;7.444;2024-02-21T09:06:18;7.85;;;3.55;;
31660;SDS011;18267;52.234;7.444;2024-02-21T09:08:45;11.70;;;3.67;;
31660;SDS011;18267;52.234;7.444;2024-02-21T09:11:11;8.73;;;3.72;;
31660;SDS011;18267;52.234;7.444;2024-02-21T09:13:36;9.55;;;4.22;;
31660;SDS011;18267;52.234;7.444;2024-02-21T09:16:02;12.07;;;4.38;;
31660;SDS011;18267;52.234;7.444;2024-02-21T09:18:28;8.35;;;3.88;;
31660;SDS011;18267;52.234;7.444;2024-02-21T09:20:54;11.07;;;4.13;;
31660;SDS011;18267;52.234;7.444;2024-02-21T09:23:20;17.65;;;3.85;;
31660;SDS011;18267;52.234;7.444;2024-02-21T09:25:45;10.38;;;3.78;;
31660;SDS011;18267;52.234;7.444;2024-02-21T09:28:11;13.38;;;4.03;;
31660;SDS011;18267;52.234;7.444;2024-02-21T09:30:38;8.38;;;3.55;;
31660;SDS011;18267;52.234;7.444;2024-02-21T09:33:03;15.00;;;4.18;;
31660;SDS011;18267;52.234;7.444;2024-02-21T09:35:30;7.47;;;3.50;;
31660;SDS011;18267;52.234;7.444;2024-02-21T09:37:55;12.75;;;3.80;;
31660;SDS011;18267;52.234;7.444;2024-02-21T09:40:21;13.77;;;3.97;;
31660;SDS011;18267;52.234;7.444;2024-02-21T09:42:47;10.02;;;4.05;;
31660;SDS011;18267;52.234;7.444;2024-02-21T09:47:50;13.95;;;3.95;;
31660;SDS011;18267;52.234;7.444;2024-02-21T09:52:57;13.48;;;3.60;;
31660;SDS011;18267;52.234;7.444;2024-02-21T09:55:26;14.32;;;4.32;;
31660;SDS011;18267;52.234;7.444;2024-02-21T09:57:54;12.35;;;3.58;;
31660;SDS011;18267;52.234;7.444;2024-02-21T10:00:21;8.73;;;3.67;;
31660;SDS011;18267;52.234;7.444;2024-02-21T10:02:47;12.63;;;3.72;;
31660;SDS011;18267;52.234;7.444;2024-02-21T10:05:14;11.88;;;4.00;;
31660;SDS011;18267;52.234;7.444;2024-02-21T10:07:40;12.15;;;3.47;;
31660;SDS011;18267;52.234;7.444;2024-02-21T10:10:06;8.25;;;3.60;;
31660;SDS011;18267;52.234;7.444;2024-02-21T10:12:32;14.57;;;3.97;;
31660;SDS011;18267;52.234;7.444;2024-02-21T10:15:01;8.50;;;4.05;;
31660;SDS011;18267;52.234;7.444;2024-02-21T10:17:34;7.53;;;3.88;;
31660;SDS011;18267;52.234;7.444;2024-02-21T10:20:10;10.05;;;3.72;;
31660;SDS011;18267;52.234;7.444;2024-02-21T10:22:38;6.97;;;3.20;;
31660;SDS011;18267;52.234;7.444;2024-02-21T10:25:11;12.70;;;3.40;;
31660;SDS011;18267;52.234;7.444;2024-02-21T10:27:38;9.98;;;5.10;;
31660;SDS011;18267;52.234;7.444;2024-02-21T10:30:05;10.18;;;4.35;;
31660;SDS011;18267;52.234;7.444;2024-02-21T10:32:32;9.88;;;3.80;;
31660;SDS011;18267;52.234;7.444;2024-02-21T10:35:04;8.02;;;2.90;;
31660;SDS011;18267;52.234;7.444;2024-02-21T10:37:30;7.38;;;3.60;;
31660;SDS011;18267;52.234;7.444;2024-02-21T10:39:57;4.55;;;2.92;;
31660;SDS011;18267;52.234;7.444;2024-02-21T10:42:22;15.65;;;3.75;;
31660;SDS011;18267;52.234;7.444;2024-02-21T10:44:50;5.57;;;2.95;;
31660;SDS011;18267;52.234;7.444;2024-02-21T10:47:17;8.13;;;3.92;;
31660;SDS011;18267;52.234;7.444;2024-02-21T10:49:46;7.68;;;3.33;;
31660;SDS011;18267;52.234;7.444;2024-02-21T10:52:32;6.32;;;3.55;;
31660;SDS011;18267;52.234;7.444;2024-02-21T10:55:33;9.65;;;3.28;;
31660;SDS011;18267;52.234;7.444;2024-02-21T10:58:06;5.80;;;2.70;;
31660;SDS011;18267;52.234;7.444;2024-02-21T11:00:34;7.30;;;3.10;;
31660;SDS011;18267;52.234;7.444;2024-02-21T11:03:02;8.35;;;3.17;;
31660;SDS011;18267;52.234;7.444;2024-02-21T11:05:28;13.32;;;3.22;;
31660;SDS011;18267;52.234;7.444;2024-02-21T11:07:54;5.50;;;2.95;;
31660;SDS011;18267;52.234;7.444;2024-02-21T11:10:24;4.35;;;2.97;;
31660;SDS011;18267;52.234;7.444;2024-02-21T11:12:53;8.02;;;3.22;;
31660;SDS011;18267;52.234;7.444;2024-02-21T11:15:30;9.48;;;3.15;;
31660;SDS011;18267;52.234;7.444;2024-02-21T11:17:56;7.75;;;3.50;;
31660;SDS011;18267;52.234;7.444;2024-02-21T11:20:31;11.23;;;4.05;;
31660;SDS011;18267;52.234;7.444;2024-02-21T11:23:00;10.98;;;5.18;;
31660;SDS011;18267;52.234;7.444;2024-02-21T11:25:27;9.35;;;6.18;;
31660;SDS011;18267;52.234;7.444;2024-02-21T11:28:09;9.80;;;6.22;;
31660;SDS011;18267;52.234;7.444;2024-02-21T11:30:36;18.10;;;7.22;;
31660;SDS011;18267;52.234;7.444;2024-02-21T11:33:03;15.45;;;8.27;;
31660;SDS011;18267;52.234;7.444;2024-02-21T11:35:32;14.65;;;7.18;;
31660;SDS011;18267;52.234;7.444;2024-02-21T11:38:09;15.73;;;6.97;;
31660;SDS011;18267;52.234;7.444;2024-02-21T11:40:40;15.00;;;7.25;;
31660;SDS011;18267;52.234;7.444;2024-02-21T11:43:06;11.98;;;7.53;;
31660;SDS011;18267;52.234;7.444;2024-02-21T11:45:32;10.25;;;7.15;;
31660;SDS011;18267;52.234;7.444;2024-02-21T11:47:59;16.48;;;7.63;;
31660;SDS011;18267;52.234;7.444;2024-02-21T11:50:25;14.73;;;7.93;;
31660;SDS011;18267;52.234;7.444;2024-02-21T11:52:54;11.95;;;7.03;;
31660;SDS011;18267;52.234;7.444;2024-02-21T11:55:20;12.77;;;8.13;;
31660;SDS011;18267;52.234;7.444;2024-02-21T11:57:50;12.25;;;7.70;;
31660;SDS011;18267;52.234;7.444;2024-02-21T12:00:18;23.95;;;8.25;;
31660;SDS011;18267;52.234;7.444;2024-02-21T12:02:49;15.00;;;8.40;;
31660;SDS011;18267;52.234;7.444;2024-02-21T12:05:15;15.90;;;9.15;;
31660;SDS011;18267;52.234;7.444;2024-02-21T12:07:41;16.58;;;8.20;;
31660;SDS011;18267;52.234;7.444;2024-02-21T12:10:10;13.13;;;7.32;;
31660;SDS011;18267;52.234;7.444;2024-02-21T12:12:39;11.48;;;7.47;;
31660;SDS011;18267;52.234;7.444;2024-02-21T12:15:05;12.07;;;6.93;;
31660;SDS011;18267;52.234;7.444;2024-02-21T12:17:32;17.65;;;7.22;;
31660;SDS011;18267;52.234;7.444;2024-02-21T12:19:59;11.73;;;6.72;;
31660;SDS011;18267;52.234;7.444;2024-02-21T12:22:25;12.20;;;6.72;;
31660;SDS011;18267;52.234;7.444;2024-02-21T12:24:51;9.77;;;6.72;;
31660;SDS011;18267;52.234;7.444;2024-02-21T12:27:17;14.95;;;7.05;;
31660;SDS011;18267;52.234;7.444;2024-02-21T12:29:42;15.93;;;7.25;;
31660;SDS011;18267;52.234;7.444;2024-02-21T12:32:08;12.73;;;6.75;;
31660;SDS011;18267;52.234;7.444;2024-02-21T12:34:34;14.80;;;6.45;;
31660;SDS011;18267;52.234;7.444;2024-02-21T12:37:01;9.63;;;6.15;;
31660;SDS011;18267;52.234;7.444;2024-02-21T12:39:28;13.32;;;5.95;;
31660;SDS011;18267;52.234;7.444;2024-02-21T12:41:54;9.88;;;5.47;;
31660;SDS011;18267;52.234;7.444;2024-02-21T12:44:21;6.47;;;4.95;;
31660;SDS011;18267;52.234;7.444;2024-02-21T12:46:46;13.27;;;4.93;;
31660;SDS011;18267;52.234;7.444;2024-02-21T12:49:16;5.40;;;3.47;;
31660;SDS011;18267;52.234;7.444;2024-02-21T12:51:43;6.97;;;3.45;;
31660;SDS011;18267;52.234;7.444;2024-02-21T12:54:11;7.25;;;3.80;;
31660;SDS011;18267;52.234;7.444;2024-02-21T12:56:37;11.80;;;4.00;;
31660;SDS011;18267;52.234;7.444;2024-02-21T12:59:02;7.68;;;4.25;;
31660;SDS011;18267;52.234;7.444;2024-02-21T13:01:28;12.52;;;4.30;;
31660;SDS011;18267;52.234;7.444;2024-02-21T13:03:54;11.80;;;4.18;;
31660;SDS011;18267;52.234;7.444;2024-02-21T13:06:20;12.40;;;3.80;;
31660;SDS011;18267;52.234;7.444;2024-02-21T13:08:46;9.80;;;4.15;;
31660;SDS011;18267;52.234;7.444;2024-02-21T13:11:12;10.57;;;3.30;;
31660;SDS011;18267;52.234;7.444;2024-02-21T13:13:38;5.72;;;3.13;;
31660;SDS011;18267;52.234;7.444;2024-02-21T13:16:03;12.80;;;2.92;;
31660;SDS011;18267;52.234;7.444;2024-02-21T13:18:29;6.95;;;3.47;;
31660;SDS011;18267;52.234;7.444;2024-02-21T13:20:55;7.10;;;2.88;;
31660;SDS011;18267;52.234;7.444;2024-02-21T13:23:20;5.05;;;3.10;;
31660;SDS011;18267;52.234;7.444;2024-02-21T13:25:46;6.90;;;3.30;;
31660;SDS011;18267;52.234;7.444;2024-02-21T13:28:12;7.00;;;3.08;;
31660;SDS011;18267;52.234;7.444;2024-02-21T13:30:39;6.32;;;2.67;;
31660;SDS011;18267;52.234;7.444;2024-02-21T13:33:08;8.38;;;3.38;;
31660;SDS011;18267;52.234;7.444;2024-02-21T13:35:35;9.02;;;3.50;;
31660;SDS011;18267;52.234;7.444;2024-02-21T13:38:01;9.20;;;2.90;;
31660;SDS011;18267;52.234;7.444;2024-02-21T13:40:28;7.10;;;3.30;;
31660;SDS011;18267;52.234;7.444;2024-02-21T13:42:53;7.63;;;3.45;;
31660;SDS011;18267;52.234;7.444;2024-02-21T13:45:19;11.75;;;3.10;;
31660;SDS011;18267;52.234;7.444;2024-02-21T13:47:45;8.65;;;3.30;;
31660;SDS011;18267;52.234;7.444;2024-02-21T13:50:10;21.67;;;3.88;;
31660;SDS011;18267;52.234;7.444;2024-02-21T13:52:38;5.60;;;2.92;;
31660;SDS011;18267;52.234;7.444;2024-02-21T13:55:04;13.80;;;3.38;;
31660;SDS011;18267;52.234;7.444;2024-02-21T13:57:29;3.28;;;2.80;;
31660;SDS011;18267;52.234;7.444;2024-02-21T13:59:55;7.30;;;3.05;;
31660;SDS011;18267;52.234;7.444;2024-02-21T14:02:20;5.28;;;3.13;;
31660;SDS011;18267;52.234;7.444;2024-02-21T14:04:46;9.20;;;3.65;;
31660;SDS011;18267;52.234;7.444;2024-02-21T14:07:12;7.03;;;3.28;;
31660;SDS011;18267;52.234;7.444;2024-02-21T14:09:37;6.65;;;3.00;;
31660;SDS011;18267;52.234;7.444;2024-02-21T14:12:03;15.10;;;3.47;;
31660;SDS011;18267;52.234;7.444;2024-02-21T14:14:32;8.57;;;3.10;;
31660;SDS011;18267;52.234;7.444;2024-02-21T14:16:59;10.30;;;2.60;;
31660;SDS011;18267;52.234;7.444;2024-02-21T14:19:25;16.80;;;3.20;;
31660;SDS011;18267;52.234;7.444;2024-02-21T14:21:50;7.07;;;2.78;;
31660;SDS011;18267;52.234;7.444;2024-02-21T14:24:16;8.57;;;2.78;;
31660;SDS011;18267;52.234;7.444;2024-02-21T14:26:41;6.82;;;2.65;;
31660;SDS011;18267;52.234;7.444;2024-02-21T14:29:07;8.40;;;2.83;;
31660;SDS011;18267;52.234;7.444;2024-02-21T14:31:32;6.18;;;2.10;;
31660;SDS011;18267;52.234;7.444;2024-02-21T14:33:58;7.32;;;3.22;;
31660;SDS011;18267;52.234;7.444;2024-02-21T14:36:25;3.35;;;2.13;;
31660;SDS011;18267;52.234;7.444;2024-02-21T14:38:51;7.97;;;2.58;;